Time;durP1;ratioP1;P1;durP2;ratioP2;P2;SDS_P1;SDS_P2;PMS_P1;PMS_P2;Temp;Humidity;BMP_temperature;BMP_pressure;BME280_temperature;BME280_humidity;BME280_pressure;Samples;Min_cycle;Max_cycle;Signal;HPM_P1;HPM_P2
2022/08/24 00:01:21;;;;;;;;;;;21.40;92.20;;;;;;5033785;28;19925;-53
2022/08/24 00:03:47;;;;;;;;;;;21.20;92.70;;;;;;5033033;28;19921;-53
2022/08/24 00:06:14;;;;;;;;;;;21.00;92.70;;;;;;5031803;28;19964;-48
2022/08/24 00:08:40;;;;;;;;;;;20.80;93.20;;;;;;5039690;28;19917;-48
2022/08/24 00:11:06;;;;;;;;;;;20.80;93.30;;;;;;5037698;28;20412;-51
2022/08/24 00:13:31;;;;;;;;;;;20.70;93.80;;;;;;5036834;28;20014;-46
2022/08/24 00:15:57;;;;;;;;;;;20.80;94.10;;;;;;5034115;28;19913;-49
2022/08/24 00:18:22;;;;;;;;;;;20.90;94.10;;;;;;5034474;28;19913;-50
2022/08/24 00:20:48;;;;;;;;;;;20.90;94.00;;;;;;5033684;28;20368;-49
2022/08/24 00:23:14;;;;;;;;;;;20.90;94.20;;;;;;5025723;28;19979;-50
2022/08/24 00:25:40;;;;;;;;;;;20.80;94.30;;;;;;5041654;28;20373;-46
2022/08/24 00:28:06;;;;;;;;;;;20.80;94.20;;;;;;5042394;28;19938;-46
2022/08/24 00:30:32;;;;;;;;;;;20.80;94.50;;;;;;5033971;28;19910;-50
2022/08/24 00:32:58;;;;;;;;;;;20.70;94.00;;;;;;5049115;28;19913;-51
2022/08/24 00:35:23;;;;;;;;;;;20.50;94.40;;;;;;5040905;28;19917;-47
2022/08/24 00:37:49;;;;;;;;;;;20.50;94.80;;;;;;5032855;28;19917;-52
2022/08/24 00:40:18;;;;;;;;;;;20.50;94.30;;;;;;5031769;28;20373;-47
2022/08/24 00:42:44;;;;;;;;;;;20.30;94.20;;;;;;5032579;28;19913;-48
2022/08/24 00:45:10;;;;;;;;;;;20.30;94.20;;;;;;5032799;28;19924;-50
2022/08/24 00:47:48;;;;;;;;;;;20.20;94.30;;;;;;5033132;28;19917;-53
2022/08/24 00:50:20;;;;;;;;;;;20.20;94.60;;;;;;5030808;28;19924;-50
2022/08/24 00:52:56;;;;;;;;;;;20.20;94.50;;;;;;5028489;28;19913;-51
2022/08/24 00:55:26;;;;;;;;;;;20.20;94.30;;;;;;5048835;28;19909;-45
2022/08/24 00:57:54;;;;;;;;;;;20.30;94.30;;;;;;5034593;28;19968;-50
2022/08/24 01:00:23;;;;;;;;;;;20.30;94.10;;;;;;5032806;28;19956;-46
2022/08/24 01:02:52;;;;;;;;;;;20.30;94.00;;;;;;5032637;28;20368;-48
2022/08/24 01:05:18;;;;;;;;;;;20.30;93.70;;;;;;5032509;28;20481;-47
2022/08/24 01:07:43;;;;;;;;;;;20.30;93.80;;;;;;5032544;28;19909;-47
2022/08/24 01:10:12;;;;;;;;;;;20.40;94.10;;;;;;5032504;28;20015;-52
2022/08/24 01:12:41;;;;;;;;;;;20.50;94.00;;;;;;5032766;28;19913;-51
2022/08/24 01:15:08;;;;;;;;;;;20.50;93.90;;;;;;5034726;28;19912;-50
2022/08/24 01:20:19;;;;;;;;;;;20.50;94.00;;;;;;5032506;28;20365;-51
2022/08/24 01:22:52;;;;;;;;;;;20.50;94.30;;;;;;5031918;28;19920;-47
2022/08/24 01:25:18;;;;;;;;;;;20.50;94.40;;;;;;5012802;28;19957;-49
2022/08/24 01:27:43;;;;;;;;;;;20.60;94.40;;;;;;5021307;28;19945;-47
2022/08/24 01:30:12;;;;;;;;;;;20.70;94.40;;;;;;5031947;28;20000;-47
2022/08/24 01:32:38;;;;;;;;;;;20.70;94.30;;;;;;5031918;28;19921;-49
2022/08/24 01:35:04;;;;;;;;;;;20.70;94.30;;;;;;5032046;28;19992;-45
2022/08/24 01:37:31;;;;;;;;;;;20.70;94.30;;;;;;5032046;28;20016;-47
2022/08/24 01:39:59;;;;;;;;;;;20.70;94.40;;;;;;5031440;28;19914;-48
2022/08/24 01:42:25;;;;;;;;;;;20.70;94.30;;;;;;5031765;28;20395;-47
2022/08/24 01:44:51;;;;;;;;;;;20.70;94.50;;;;;;5030922;28;20416;-50
2022/08/24 01:47:17;;;;;;;;;;;20.70;94.80;;;;;;5031423;28;19983;-56
2022/08/24 01:49:44;;;;;;;;;;;20.60;94.90;;;;;;5031911;28;19940;-52
2022/08/24 01:52:12;;;;;;;;;;;20.60;95.00;;;;;;5032186;28;19913;-55
2022/08/24 01:54:39;;;;;;;;;;;20.50;94.90;;;;;;5031378;28;19960;-53
2022/08/24 01:57:05;;;;;;;;;;;20.50;95.30;;;;;;5032252;28;20004;-52
2022/08/24 01:59:30;;;;;;;;;;;20.40;95.50;;;;;;5031340;28;20016;-49
2022/08/24 02:02:01;;;;;;;;;;;20.30;95.70;;;;;;5030847;28;19999;-54
2022/08/24 02:04:27;;;;;;;;;;;20.30;95.70;;;;;;5029702;28;19917;-53
2022/08/24 02:06:53;;;;;;;;;;;20.30;95.60;;;;;;5032136;28;19917;-52
2022/08/24 02:09:18;;;;;;;;;;;20.40;95.40;;;;;;5031357;28;19913;-54
2022/08/24 02:11:44;;;;;;;;;;;20.30;95.50;;;;;;5031546;28;20358;-54
2022/08/24 02:14:10;;;;;;;;;;;20.30;95.50;;;;;;5030020;28;20333;-51
2022/08/24 02:16:35;;;;;;;;;;;20.20;95.60;;;;;;5032038;28;19981;-54
2022/08/24 02:19:01;;;;;;;;;;;20.20;95.70;;;;;;5031181;28;20430;-52
2022/08/24 02:21:26;;;;;;;;;;;20.20;95.70;;;;;;5031270;28;20008;-50
2022/08/24 02:23:52;;;;;;;;;;;20.30;95.80;;;;;;5030657;28;19951;-51
2022/08/24 02:26:17;;;;;;;;;;;20.30;95.90;;;;;;5031591;28;19917;-55
2022/08/24 02:28:43;;;;;;;;;;;20.20;96.00;;;;;;5030925;28;19918;-53
2022/08/24 02:31:09;;;;;;;;;;;20.20;95.90;;;;;;5029706;28;20060;-49
2022/08/24 02:33:36;;;;;;;;;;;20.20;96.10;;;;;;5031472;28;19963;-55
2022/08/24 02:36:02;;;;;;;;;;;20.00;96.10;;;;;;5031302;28;19920;-54
2022/08/24 02:38:28;;;;;;;;;;;19.60;97.10;;;;;;5030621;28;19925;-55
2022/08/24 02:40:54;;;;;;;;;;;19.40;97.90;;;;;;5031074;28;19921;-51
2022/08/24 02:43:20;;;;;;;;;;;19.30;97.80;;;;;;5031971;28;19920;-52
2022/08/24 02:45:45;;;;;;;;;;;19.30;97.80;;;;;;5032607;28;19913;-50
2022/08/24 02:48:12;;;;;;;;;;;19.30;97.80;;;;;;5030732;28;19917;-50
2022/08/24 02:50:42;;;;;;;;;;;19.30;97.60;;;;;;5029985;28;20012;-53
2022/08/24 02:53:08;;;;;;;;;;;19.30;97.00;;;;;;5031480;28;19949;-55
2022/08/24 02:55:34;;;;;;;;;;;19.20;97.30;;;;;;5031438;28;19941;-51
2022/08/24 02:58:00;;;;;;;;;;;19.20;97.40;;;;;;5031714;28;19920;-54
2022/08/24 03:00:26;;;;;;;;;;;19.10;97.60;;;;;;5031965;28;20296;-53
2022/08/24 03:02:53;;;;;;;;;;;19.10;97.60;;;;;;5032161;28;19936;-54
2022/08/24 03:05:19;;;;;;;;;;;19.00;97.80;;;;;;5031603;28;19978;-54
2022/08/24 03:07:44;;;;;;;;;;;19.10;97.80;;;;;;5031696;28;20007;-50
2022/08/24 03:10:10;;;;;;;;;;;19.20;97.80;;;;;;5033491;28;19913;-50
2022/08/24 03:12:35;;;;;;;;;;;19.30;96.90;;;;;;5035204;28;20439;-49
2022/08/24 03:15:02;;;;;;;;;;;19.20;97.40;;;;;;5039050;28;19909;-46
2022/08/24 03:17:30;;;;;;;;;;;19.10;97.80;;;;;;5039011;28;20007;-50
2022/08/24 03:19:56;;;;;;;;;;;19.00;97.80;;;;;;5038065;28;19921;-48
2022/08/24 03:22:21;;;;;;;;;;;19.00;97.60;;;;;;5039219;28;19960;-53
2022/08/24 03:24:47;;;;;;;;;;;19.00;97.60;;;;;;5038729;28;19920;-51
2022/08/24 03:27:13;;;;;;;;;;;18.90;97.60;;;;;;5035721;28;20262;-51
2022/08/24 03:29:39;;;;;;;;;;;18.80;97.80;;;;;;5035182;28;20385;-51
2022/08/24 03:32:04;;;;;;;;;;;18.80;98.00;;;;;;5035546;28;19909;-52
2022/08/24 03:34:30;;;;;;;;;;;18.90;97.70;;;;;;5034232;28;19920;-53
2022/08/24 03:36:55;;;;;;;;;;;18.90;97.90;;;;;;5034356;28;20277;-50
2022/08/24 03:39:21;;;;;;;;;;;19.00;98.00;;;;;;5033688;28;19909;-52
2022/08/24 03:41:46;;;;;;;;;;;19.00;97.80;;;;;;5034384;28;19917;-52
2022/08/24 03:44:12;;;;;;;;;;;19.20;97.60;;;;;;5034139;28;20369;-51
2022/08/24 03:46:38;;;;;;;;;;;19.20;97.40;;;;;;5032807;28;19921;-55
2022/08/24 03:49:05;;;;;;;;;;;19.30;97.50;;;;;;5032834;28;19909;-51
2022/08/24 03:51:30;;;;;;;;;;;19.30;97.40;;;;;;5032359;28;19924;-54
2022/08/24 03:53:57;;;;;;;;;;;19.30;97.50;;;;;;5033486;28;19917;-52
2022/08/24 03:56:23;;;;;;;;;;;19.30;97.80;;;;;;5034141;28;19980;-54
2022/08/24 03:58:49;;;;;;;;;;;19.30;97.80;;;;;;5033284;28;19970;-55
2022/08/24 04:01:16;;;;;;;;;;;19.30;97.80;;;;;;5034221;28;19913;-53
2022/08/24 04:03:42;;;;;;;;;;;19.30;98.00;;;;;;5034102;28;19992;-52
2022/08/24 04:06:08;;;;;;;;;;;19.30;98.10;;;;;;5033384;28;19917;-50
2022/08/24 04:08:34;;;;;;;;;;;19.30;98.10;;;;;;5033016;28;19980;-52
2022/08/24 04:11:00;;;;;;;;;;;19.40;98.00;;;;;;5033229;28;20008;-53
2022/08/24 04:13:30;;;;;;;;;;;19.40;97.90;;;;;;5033815;28;19984;-55
2022/08/24 04:15:56;;;;;;;;;;;19.40;97.80;;;;;;5034278;28;20051;-52
2022/08/24 04:18:22;;;;;;;;;;;19.40;97.80;;;;;;5033056;28;20562;-50
2022/08/24 04:20:48;;;;;;;;;;;19.40;97.90;;;;;;5033964;28;19913;-51
2022/08/24 04:23:14;;;;;;;;;;;19.30;97.70;;;;;;5033132;28;19919;-52
2022/08/24 04:25:44;;;;;;;;;;;19.20;97.70;;;;;;5033127;28;20340;-51
2022/08/24 04:28:10;;;;;;;;;;;19.10;98.10;;;;;;5022795;28;19956;-53
2022/08/24 04:30:38;;;;;;;;;;;18.90;98.10;;;;;;5033423;28;19925;-52
2022/08/24 04:33:05;;;;;;;;;;;18.90;98.20;;;;;;5033093;28;19913;-51
2022/08/24 04:35:32;;;;;;;;;;;18.80;98.40;;;;;;5032352;28;19963;-52
2022/08/24 04:37:57;;;;;;;;;;;18.90;98.40;;;;;;5033496;28;19920;-51
2022/08/24 04:40:23;;;;;;;;;;;19.00;98.40;;;;;;5032489;28;19917;-52
2022/08/24 04:42:49;;;;;;;;;;;19.10;98.20;;;;;;5033212;28;19913;-50
2022/08/24 04:45:15;;;;;;;;;;;19.20;98.00;;;;;;5029250;28;19921;-48
2022/08/24 04:47:42;;;;;;;;;;;19.10;97.80;;;;;;5030386;28;19924;-54
2022/08/24 04:50:08;;;;;;;;;;;19.10;98.10;;;;;;5032163;28;19913;-50
2022/08/24 04:52:34;;;;;;;;;;;19.00;98.20;;;;;;5031384;28;19917;-53
2022/08/24 04:54:59;;;;;;;;;;;19.10;98.20;;;;;;5032462;28;19917;-51
2022/08/24 04:57:25;;;;;;;;;;;19.20;98.10;;;;;;5031734;28;19998;-56
2022/08/24 04:59:54;;;;;;;;;;;19.20;97.80;;;;;;5031938;28;19917;-56
2022/08/24 05:02:20;;;;;;;;;;;19.20;97.80;;;;;;5032532;28;19921;-52
2022/08/24 05:04:47;;;;;;;;;;;19.20;97.60;;;;;;5032446;28;19923;-52
2022/08/24 05:07:12;;;;;;;;;;;19.20;97.30;;;;;;5031099;28;19967;-52
2022/08/24 05:09:38;;;;;;;;;;;19.10;97.60;;;;;;5031471;28;19913;-56
2022/08/24 05:12:03;;;;;;;;;;;19.00;97.50;;;;;;5031818;28;19923;-55
2022/08/24 05:14:29;;;;;;;;;;;18.90;98.20;;;;;;5030739;28;19917;-55
2022/08/24 05:16:55;;;;;;;;;;;18.80;98.40;;;;;;5031519;28;19925;-54
2022/08/24 05:19:22;;;;;;;;;;;18.90;98.40;;;;;;5031194;28;19925;-53
2022/08/24 05:21:47;;;;;;;;;;;19.10;98.20;;;;;;5027976;28;19939;-54
2022/08/24 05:24:13;;;;;;;;;;;19.20;98.10;;;;;;5031126;28;19909;-51
2022/08/24 05:26:39;;;;;;;;;;;19.20;97.70;;;;;;5031437;28;19987;-52
2022/08/24 05:29:04;;;;;;;;;;;19.20;97.70;;;;;;5031683;28;19923;-53
2022/08/24 05:31:30;;;;;;;;;;;19.00;97.80;;;;;;5026200;28;19956;-51
2022/08/24 05:33:57;;;;;;;;;;;18.90;98.20;;;;;;5032853;28;19909;-54
2022/08/24 05:36:24;;;;;;;;;;;18.90;98.80;;;;;;5032227;28;19944;-54
2022/08/24 05:38:51;;;;;;;;;;;19.00;98.70;;;;;;5032158;28;20435;-54
2022/08/24 05:41:17;;;;;;;;;;;19.20;98.50;;;;;;5033883;28;20428;-55
2022/08/24 05:43:43;;;;;;;;;;;19.20;98.60;;;;;;5031456;28;20036;-55
2022/08/24 05:46:09;;;;;;;;;;;19.30;98.70;;;;;;5032803;28;19917;-52
2022/08/24 05:48:36;;;;;;;;;;;19.30;98.70;;;;;;5047868;28;19913;-54
2022/08/24 05:51:02;;;;;;;;;;;19.30;98.60;;;;;;5032454;28;19939;-52
2022/08/24 05:53:27;;;;;;;;;;;19.30;98.90;;;;;;5032280;28;19928;-49
2022/08/24 05:55:53;;;;;;;;;;;19.30;99.00;;;;;;5024552;28;19925;-54
2022/08/24 05:58:19;;;;;;;;;;;19.40;99.10;;;;;;5031161;28;19921;-52
2022/08/24 06:00:45;;;;;;;;;;;19.40;99.10;;;;;;5014683;28;19917;-52
2022/08/24 06:03:12;;;;;;;;;;;19.30;99.30;;;;;;5031046;28;20008;-53
2022/08/24 06:05:38;;;;;;;;;;;19.40;99.30;;;;;;5032161;28;19918;-54
2022/08/24 06:08:04;;;;;;;;;;;19.50;99.20;;;;;;5031127;28;19940;-55
2022/08/24 06:10:30;;;;;;;;;;;19.60;99.10;;;;;;5030268;28;19918;-48
2022/08/24 06:12:55;;;;;;;;;;;19.60;98.90;;;;;;5026636;28;19917;-52
2022/08/24 06:15:21;;;;;;;;;;;19.70;98.90;;;;;;5030534;28;19987;-52
2022/08/24 06:17:46;;;;;;;;;;;19.80;98.90;;;;;;5031578;28;19944;-50
2022/08/24 06:20:12;;;;;;;;;;;19.90;99.00;;;;;;5020344;28;19917;-54
2022/08/24 06:22:38;;;;;;;;;;;19.90;98.90;;;;;;5031812;28;19913;-48
2022/08/24 06:27:55;;;;;;;;;;;20.10;98.70;;;;;;5004570;28;19922;-50
2022/08/24 06:30:21;;;;;;;;;;;20.20;98.50;;;;;;5022931;28;20289;-49
2022/08/24 06:35:23;;;;;;;;;;;20.40;98.70;;;;;;5017281;28;19947;-74
2022/08/24 06:37:49;;;;;;;;;;;20.40;98.70;;;;;;5023386;28;20027;-72
2022/08/24 06:40:14;;;;;;;;;;;20.50;98.60;;;;;;4999029;28;19947;-74
2022/08/24 06:42:40;;;;;;;;;;;20.60;98.50;;;;;;5017760;28;19944;-74
2022/08/24 06:45:06;;;;;;;;;;;20.70;98.40;;;;;;5007311;28;19921;-74
2022/08/24 06:47:31;;;;;;;;;;;20.80;98.40;;;;;;5006648;28;20266;-75
2022/08/24 06:49:58;;;;;;;;;;;20.90;98.10;;;;;;5004868;28;19917;-75
2022/08/24 06:52:24;;;;;;;;;;;21.00;98.00;;;;;;5020112;28;19921;-74
2022/08/24 06:54:49;;;;;;;;;;;21.20;97.90;;;;;;5003250;28;20262;-74
2022/08/24 06:57:15;;;;;;;;;;;21.30;97.90;;;;;;5005223;28;19974;-75
2022/08/24 06:59:41;;;;;;;;;;;21.40;97.90;;;;;;5030423;28;19913;-74
2022/08/24 07:02:14;;;;;;;;;;;21.40;97.80;;;;;;5025492;28;19921;-75
2022/08/24 07:04:40;;;;;;;;;;;21.50;97.80;;;;;;5036520;28;19921;-73
2022/08/24 07:07:05;;;;;;;;;;;21.60;97.90;;;;;;5006237;28;19913;-73
2022/08/24 07:09:31;;;;;;;;;;;21.70;98.10;;;;;;5019904;28;20417;-73
2022/08/24 07:11:56;;;;;;;;;;;21.70;98.20;;;;;;5019975;28;20173;-74
2022/08/24 07:14:22;;;;;;;;;;;21.90;98.00;;;;;;5001893;28;19972;-75
2022/08/24 07:16:48;;;;;;;;;;;22.00;98.00;;;;;;4993124;28;19960;-75
2022/08/24 07:19:13;;;;;;;;;;;22.10;97.90;;;;;;5021718;28;20309;-74
2022/08/24 07:21:39;;;;;;;;;;;22.20;97.90;;;;;;5005353;28;19989;-72
2022/08/24 07:24:06;;;;;;;;;;;22.20;97.80;;;;;;5028008;28;19917;-73
2022/08/24 07:26:31;;;;;;;;;;;22.20;98.00;;;;;;5005350;28;19920;-74
2022/08/24 07:29:05;;;;;;;;;;;22.20;98.00;;;;;;5002071;28;20020;-75
2022/08/24 07:31:32;;;;;;;;;;;22.40;97.70;;;;;;5022488;28;20012;-74
2022/08/24 07:33:58;;;;;;;;;;;22.50;97.60;;;;;;5004582;28;20014;-73
2022/08/24 07:36:23;;;;;;;;;;;22.60;97.50;;;;;;5018922;28;19926;-75
2022/08/24 07:38:51;;;;;;;;;;;22.60;97.40;;;;;;4997476;28;20004;-74
2022/08/24 07:41:16;;;;;;;;;;;22.70;97.30;;;;;;5017553;28;19925;-74
2022/08/24 07:43:42;;;;;;;;;;;22.80;97.20;;;;;;5018803;28;19996;-74
2022/08/24 07:46:07;;;;;;;;;;;22.90;97.20;;;;;;5015595;28;19936;-74
2022/08/24 07:48:33;;;;;;;;;;;23.00;97.10;;;;;;4998244;28;19918;-74
2022/08/24 07:51:09;;;;;;;;;;;23.10;96.90;;;;;;5012900;28;19913;-74
2022/08/24 07:53:35;;;;;;;;;;;23.10;96.70;;;;;;4994373;28;19919;-74
2022/08/24 07:56:00;;;;;;;;;;;23.10;96.80;;;;;;5004302;28;19917;-74
2022/08/24 07:58:26;;;;;;;;;;;23.10;96.50;;;;;;4997112;28;19929;-75
2022/08/24 08:00:52;;;;;;;;;;;23.20;96.60;;;;;;4979876;28;19917;-75
2022/08/24 08:03:17;;;;;;;;;;;23.30;96.60;;;;;;5013493;28;19921;-74
2022/08/24 08:05:43;;;;;;;;;;;23.30;96.40;;;;;;5014169;28;19955;-74
2022/08/24 08:08:10;;;;;;;;;;;23.40;96.30;;;;;;5013798;28;19913;-74
2022/08/24 08:10:35;;;;;;;;;;;23.40;96.20;;;;;;5013399;28;19925;-73
2022/08/24 08:13:02;;;;;;;;;;;23.50;96.00;;;;;;4994500;28;19997;-73
2022/08/24 08:15:27;;;;;;;;;;;23.50;95.90;;;;;;5009768;28;19929;-75
2022/08/24 08:17:53;;;;;;;;;;;23.50;96.00;;;;;;5014047;28;19917;-73
2022/08/24 08:20:19;;;;;;;;;;;23.60;95.60;;;;;;5008844;28;20369;-73
2022/08/24 08:25:30;;;;;;;;;;;23.60;95.80;;;;;;5015726;28;19917;-73
2022/08/24 08:27:56;;;;;;;;;;;23.70;95.70;;;;;;5007894;28;19913;-75
2022/08/24 08:30:21;;;;;;;;;;;23.70;95.50;;;;;;5015226;28;19929;-73
2022/08/24 08:32:47;;;;;;;;;;;23.70;95.40;;;;;;5013095;28;19925;-72
2022/08/24 08:35:12;;;;;;;;;;;23.70;95.60;;;;;;4994199;28;20289;-74
2022/08/24 08:37:38;;;;;;;;;;;23.60;95.60;;;;;;5007022;28;19988;-73
2022/08/24 08:40:08;;;;;;;;;;;23.80;95.40;;;;;;5009832;28;19925;-72
2022/08/24 08:42:52;;;;;;;;;;;23.80;95.50;;;;;;4994213;28;19913;-74
2022/08/24 08:45:36;;;;;;;;;;;23.90;95.30;;;;;;5014212;28;20327;-72
2022/08/24 08:48:05;;;;;;;;;;;23.90;95.10;;;;;;5000493;28;20378;-74
2022/08/24 08:50:39;;;;;;;;;;;23.90;95.10;;;;;;5012674;28;19914;-73
2022/08/24 08:53:14;;;;;;;;;;;24.00;94.90;;;;;;5011706;28;19914;-73
2022/08/24 08:55:58;;;;;;;;;;;24.00;94.40;;;;;;5014894;28;20355;-74
2022/08/24 08:58:34;;;;;;;;;;;24.20;94.20;;;;;;5011797;28;19924;-74
2022/08/24 09:01:04;;;;;;;;;;;24.30;94.40;;;;;;5003516;28;19920;-74
2022/08/24 09:03:39;;;;;;;;;;;24.40;94.50;;;;;;4994335;28;19921;-73
2022/08/24 09:06:04;;;;;;;;;;;24.50;94.30;;;;;;5010076;28;19939;-73
2022/08/24 09:08:30;;;;;;;;;;;24.50;94.00;;;;;;5011909;28;20001;-74
2022/08/24 09:10:55;;;;;;;;;;;24.50;94.00;;;;;;4994553;28;19918;-73
2022/08/24 09:13:24;;;;;;;;;;;24.60;94.00;;;;;;5010317;28;20266;-74
2022/08/24 09:16:01;;;;;;;;;;;24.50;92.40;;;;;;5012856;28;20373;-74
2022/08/24 09:18:27;;;;;;;;;;;24.60;92.20;;;;;;5007580;28;19926;-73
2022/08/24 09:21:01;;;;;;;;;;;24.80;93.10;;;;;;5015350;28;19913;-75
2022/08/24 09:23:30;;;;;;;;;;;24.90;92.80;;;;;;5012800;28;20284;-74
2022/08/24 09:26:05;;;;;;;;;;;25.00;93.00;;;;;;5016458;28;19914;-72
2022/08/24 09:28:43;;;;;;;;;;;25.20;92.70;;;;;;5017744;28;19940;-72
2022/08/24 09:31:08;;;;;;;;;;;25.40;92.20;;;;;;5013206;28;19913;-72
2022/08/24 09:33:46;;;;;;;;;;;25.50;91.80;;;;;;5017012;28;19917;-72
2022/08/24 09:36:18;;;;;;;;;;;25.70;91.30;;;;;;5015942;28;19940;-71
2022/08/24 09:39:02;;;;;;;;;;;25.80;91.10;;;;;;4998433;28;20426;-73
2022/08/24 09:41:28;;;;;;;;;;;25.80;90.70;;;;;;5015270;28;19940;-74
2022/08/24 09:44:01;;;;;;;;;;;26.00;90.50;;;;;;5011125;28;20501;-73
2022/08/24 09:46:45;;;;;;;;;;;26.00;90.30;;;;;;5016680;28;20523;-73
2022/08/24 09:49:30;;;;;;;;;;;26.00;90.10;;;;;;5017999;28;19920;-73
2022/08/24 09:51:55;;;;;;;;;;;26.10;89.20;;;;;;5016116;28;19975;-72
2022/08/24 09:54:39;;;;;;;;;;;25.90;90.00;;;;;;5012614;28;20377;-73
2022/08/24 09:57:28;;;;;;;;;;;26.10;89.30;;;;;;5017428;28;19914;-73
2022/08/24 10:00:08;;;;;;;;;;;26.10;88.50;;;;;;5016036;28;19917;-74
2022/08/24 10:02:52;;;;;;;;;;;25.90;88.40;;;;;;5016749;28;19949;-74
2022/08/24 10:05:23;;;;;;;;;;;25.90;88.70;;;;;;4999528;28;19941;-73
2022/08/24 10:08:04;;;;;;;;;;;26.00;88.40;;;;;;5014912;28;19985;-73
2022/08/24 10:10:39;;;;;;;;;;;26.10;88.50;;;;;;5010825;28;20085;-73
2022/08/24 10:13:05;;;;;;;;;;;26.10;87.40;;;;;;4997080;28;19914;-72
2022/08/24 10:15:35;;;;;;;;;;;26.20;87.30;;;;;;5013519;28;19915;-72
2022/08/24 10:18:07;;;;;;;;;;;26.30;86.50;;;;;;5014962;28;19917;-74
2022/08/24 10:20:52;;;;;;;;;;;26.10;86.70;;;;;;5014375;28;19937;-72
2022/08/24 10:23:54;;;;;;;;;;;26.20;87.30;;;;;;5015547;28;19918;-79
2022/08/24 10:29:25;;;;;;;;;;;26.30;86.80;;;;;;4975161;28;19914;-74
2022/08/24 10:32:09;;;;;;;;;;;26.10;86.90;;;;;;4976485;28;19937;-73
2022/08/24 10:34:34;;;;;;;;;;;26.00;86.80;;;;;;4996279;28;19917;-71
2022/08/24 10:37:09;;;;;;;;;;;25.90;87.10;;;;;;5006508;28;20278;-71
2022/08/24 10:39:51;;;;;;;;;;;25.90;86.90;;;;;;5015257;28;19949;-72
2022/08/24 10:43:32;;;;;;;;;;;26.00;86.70;;;;;;5019055;28;19957;-73
2022/08/24 10:45:20;;;;;;;;;;;25.80;87.40;;;;;;5020602;28;19921;-72
2022/08/24 10:48:03;;;;;;;;;;;25.70;86.40;;;;;;5016751;28;19913;-73
2022/08/24 10:50:51;;;;;;;;;;;25.50;85.40;;;;;;5020135;28;20361;-73
2022/08/24 10:53:19;;;;;;;;;;;25.60;85.70;;;;;;5010063;28;19921;-72
2022/08/24 10:55:45;;;;;;;;;;;25.80;85.00;;;;;;5017872;28;20334;-75
2022/08/24 10:58:17;;;;;;;;;;;25.90;84.50;;;;;;4985110;28;20523;-72
2022/08/24 11:00:43;;;;;;;;;;;26.10;84.40;;;;;;5020740;28;20312;-72
2022/08/24 11:03:11;;;;;;;;;;;26.20;84.00;;;;;;5023328;28;19975;-72
2022/08/24 11:05:53;;;;;;;;;;;26.40;84.40;;;;;;5015002;28;20528;-73
2022/08/24 11:08:29;;;;;;;;;;;26.60;84.10;;;;;;5015022;28;19913;-71
2022/08/24 11:11:03;;;;;;;;;;;26.50;83.60;;;;;;5015577;28;19924;-72
2022/08/24 11:13:29;;;;;;;;;;;26.60;83.60;;;;;;5016442;28;19917;-73
2022/08/24 11:15:56;;;;;;;;;;;26.60;82.60;;;;;;5016642;28;19949;-73
2022/08/24 11:18:22;;;;;;;;;;;26.70;82.70;;;;;;5015917;28;19928;-73
2022/08/24 11:20:49;;;;;;;;;;;26.80;82.10;;;;;;4999884;28;19918;-73
2022/08/24 11:23:19;;;;;;;;;;;26.80;81.80;;;;;;5017449;28;19913;-73
2022/08/24 11:25:56;;;;;;;;;;;27.00;82.00;;;;;;5015531;28;20355;-73
2022/08/24 11:28:22;;;;;;;;;;;27.10;81.20;;;;;;5019018;28;20300;-73
2022/08/24 11:30:48;;;;;;;;;;;27.10;79.60;;;;;;5017087;28;19918;-73
2022/08/24 11:33:25;;;;;;;;;;;27.10;79.80;;;;;;4999592;28;19949;-73
2022/08/24 11:35:51;;;;;;;;;;;27.10;80.10;;;;;;5016777;28;19918;-72
2022/08/24 11:38:18;;;;;;;;;;;27.10;79.90;;;;;;5013301;28;19999;-71
2022/08/24 11:40:52;;;;;;;;;;;27.00;79.90;;;;;;4990741;28;19914;-72
2022/08/24 11:43:27;;;;;;;;;;;26.80;79.70;;;;;;5016461;28;19917;-72
2022/08/24 11:46:11;;;;;;;;;;;26.80;80.20;;;;;;5016712;28;19964;-72
2022/08/24 11:48:58;;;;;;;;;;;26.70;80.70;;;;;;5018794;28;19921;-73
2022/08/24 11:51:28;;;;;;;;;;;26.80;80.80;;;;;;5018667;28;19953;-72
2022/08/24 11:54:18;;;;;;;;;;;26.80;80.40;;;;;;5017832;28;20266;-73
2022/08/24 11:56:56;;;;;;;;;;;26.80;80.10;;;;;;5016752;28;19918;-73
2022/08/24 11:59:24;;;;;;;;;;;26.90;79.70;;;;;;5017258;28;20289;-74
2022/08/24 12:01:53;;;;;;;;;;;27.00;79.60;;;;;;5016360;28;19918;-74
2022/08/24 12:04:18;;;;;;;;;;;27.20;79.60;;;;;;5019326;28;19952;-73
2022/08/24 12:06:57;;;;;;;;;;;27.20;78.60;;;;;;5007216;28;19914;-71
2022/08/24 12:09:23;;;;;;;;;;;27.40;78.40;;;;;;5010777;28;20301;-73
2022/08/24 12:11:48;;;;;;;;;;;27.30;78.60;;;;;;5007497;28;19929;-74
2022/08/24 12:14:26;;;;;;;;;;;27.40;79.10;;;;;;5009399;28;19913;-73
2022/08/24 12:17:01;;;;;;;;;;;27.50;77.80;;;;;;5016845;28;20369;-72
2022/08/24 12:19:29;;;;;;;;;;;27.60;77.40;;;;;;4999038;28;19936;-72
2022/08/24 12:21:57;;;;;;;;;;;27.60;76.60;;;;;;5000232;28;19914;-73
2022/08/24 12:24:29;;;;;;;;;;;27.80;76.20;;;;;;5010992;28;19917;-72
2022/08/24 12:26:59;;;;;;;;;;;27.80;75.80;;;;;;5018118;28;19913;-73
2022/08/24 12:29:30;;;;;;;;;;;27.80;75.40;;;;;;5015114;28;19963;-74
2022/08/24 12:32:15;;;;;;;;;;;27.90;75.60;;;;;;5016438;28;20473;-74
2022/08/24 12:34:59;;;;;;;;;;;28.00;75.50;;;;;;5008235;28;19940;-74
2022/08/24 12:37:27;;;;;;;;;;;28.10;74.60;;;;;;5006736;28;19914;-73
2022/08/24 12:39:53;;;;;;;;;;;28.00;74.30;;;;;;5007752;28;20381;-73
2022/08/24 12:42:57;;;;;;;;;;;28.00;74.20;;;;;;5016967;28;19913;-73
2022/08/24 12:45:23;;;;;;;;;;;28.10;74.00;;;;;;4970562;28;20432;-73
2022/08/24 12:47:58;;;;;;;;;;;28.30;74.10;;;;;;4976496;28;20365;-73
2022/08/24 12:50:35;;;;;;;;;;;28.50;74.30;;;;;;4998703;28;20381;-74
2022/08/24 12:53:07;;;;;;;;;;;28.50;72.90;;;;;;5019597;28;20011;-73
2022/08/24 12:55:41;;;;;;;;;;;28.50;72.90;;;;;;5011937;28;19910;-73
2022/08/24 12:58:19;;;;;;;;;;;28.60;72.90;;;;;;4998855;28;19949;-74
2022/08/24 13:00:45;;;;;;;;;;;28.60;72.70;;;;;;4999447;28;19929;-74
2022/08/24 13:03:25;;;;;;;;;;;28.70;72.10;;;;;;4998996;28;19933;-73
2022/08/24 13:05:55;;;;;;;;;;;28.70;72.20;;;;;;4981184;28;19913;-74
2022/08/24 13:08:36;;;;;;;;;;;29.00;71.50;;;;;;4999292;28;19914;-74
2022/08/24 13:11:09;;;;;;;;;;;29.10;71.10;;;;;;5013150;28;20475;-75
2022/08/24 13:13:46;;;;;;;;;;;29.00;70.90;;;;;;5019997;28;19913;-74
2022/08/24 13:16:32;;;;;;;;;;;29.00;71.50;;;;;;5004693;28;19910;-75
2022/08/24 13:19:13;;;;;;;;;;;29.20;72.10;;;;;;4999804;28;19952;-74
2022/08/24 13:21:40;;;;;;;;;;;29.20;71.30;;;;;;5017871;28;19961;-75
2022/08/24 13:24:25;;;;;;;;;;;29.20;71.40;;;;;;5016858;28;19910;-73
2022/08/24 13:26:50;;;;;;;;;;;29.40;71.00;;;;;;5017599;28;19910;-74
2022/08/24 13:29:16;;;;;;;;;;;29.60;71.50;;;;;;5017279;28;20365;-74
2022/08/24 13:31:47;;;;;;;;;;;29.70;71.30;;;;;;4983187;28;19917;-74
2022/08/24 13:34:13;;;;;;;;;;;29.80;70.60;;;;;;5017581;28;19923;-75
2022/08/24 13:36:43;;;;;;;;;;;29.80;70.40;;;;;;5000788;28;20004;-76
2022/08/24 13:39:09;;;;;;;;;;;30.00;70.80;;;;;;4999127;28;19921;-76
2022/08/24 13:41:34;;;;;;;;;;;30.20;70.80;;;;;;5002804;28;19921;-76
2022/08/24 13:44:20;;;;;;;;;;;30.40;70.00;;;;;;5013612;28;20015;-75
2022/08/24 13:46:55;;;;;;;;;;;30.50;69.60;;;;;;4990417;28;19921;-73
2022/08/24 13:49:36;;;;;;;;;;;30.60;68.80;;;;;;5015714;28;19917;-75
2022/08/24 13:52:13;;;;;;;;;;;30.70;67.90;;;;;;5016832;28;19914;-76
2022/08/24 13:55:04;;;;;;;;;;;30.80;68.20;;;;;;5008190;28;20397;-73
2022/08/24 13:57:35;;;;;;;;;;;30.90;68.60;;;;;;4997718;28;19921;-74
2022/08/24 14:00:04;;;;;;;;;;;31.20;68.80;;;;;;5016208;28;19964;-73
2022/08/24 14:02:53;;;;;;;;;;;31.40;68.40;;;;;;5015821;28;20312;-76
2022/08/24 14:05:42;;;;;;;;;;;31.50;66.20;;;;;;4997901;28;19914;-75
2022/08/24 14:08:23;;;;;;;;;;;31.40;66.60;;;;;;5007173;28;19917;-75
2022/08/24 14:10:58;;;;;;;;;;;31.50;66.40;;;;;;5015070;28;19917;-75
2022/08/24 14:13:29;;;;;;;;;;;31.40;67.60;;;;;;5015259;28;19920;-75
2022/08/24 14:19:00;;;;;;;;;;;31.60;67.00;;;;;;5017049;28;19924;-76
2022/08/24 14:21:35;;;;;;;;;;;31.70;68.50;;;;;;5016352;28;19993;-75
2022/08/24 14:24:06;;;;;;;;;;;31.90;67.40;;;;;;5017464;28;19913;-75
2022/08/24 14:26:38;;;;;;;;;;;32.10;67.30;;;;;;5014138;28;19918;-75
2022/08/24 14:29:19;;;;;;;;;;;32.20;67.60;;;;;;5013821;28;19988;-73
2022/08/24 14:31:53;;;;;;;;;;;32.20;67.50;;;;;;5016398;28;19921;-74
2022/08/24 14:34:38;;;;;;;;;;;31.90;67.80;;;;;;5015308;28;19956;-75
2022/08/24 14:37:10;;;;;;;;;;;31.50;68.40;;;;;;5015046;28;19991;-75
2022/08/24 14:39:38;;;;;;;;;;;31.60;67.90;;;;;;5013418;28;19932;-75
2022/08/24 14:42:07;;;;;;;;;;;31.70;68.30;;;;;;5011827;28;19914;-74
2022/08/24 14:44:39;;;;;;;;;;;31.90;68.00;;;;;;5012562;28;19921;-74
2022/08/24 14:47:04;;;;;;;;;;;32.20;67.00;;;;;;5015698;28;20024;-72